CET,Max TemperatureF,Mean TemperatureF,Min TemperatureF,Max Dew PointF,MeanDew PointF,Min DewpointF,Max Humidity, Mean Humidity, Min Humidity, Max Sea Level PressureIn, Mean Sea Level PressureIn, Min Sea Level PressureIn, Max VisibilityMiles, Mean VisibilityMiles, Min VisibilityMiles, Max Wind SpeedMPH, Mean Wind SpeedMPH, Max Gust SpeedMPH,PrecipitationIn, CloudCover, Events, WindDirDegrees
2012-10-1,50,47,44,45,44,41,100,88,76,30.21,30.16,30.12,12,2,0,29,20,,0.12,5,Fog-Rain,240
2012-10-2,52,48,44,45,42,34,87,80,62,30.24,30.19,30.15,19,4,0,23,9,,0.00,3,Fog,251
2012-10-3,50,46,43,46,40,32,100,79,55,30.24,30.22,30.21,19,2,0,37,13,,0.00,1,Fog,264
2012-10-4,48,46,43,45,40,32,100,81,54,30.24,30.19,30.15,19,4,0,34,25,,0.00,3,Fog,272
2012-10-5,55,50,45,48,41,32,87,71,46,30.33,30.29,30.24,12,7,6,32,12,,0.00,5,,5
2012-10-6,52,49,46,41,38,34,81,67,55,30.33,30.30,30.24,16,16,16,23,15,,0.00,,,240
2012-10-7,50,48,45,46,41,34,100,77,53,30.21,30.15,30.12,19,7,0,30,21,,0.00,3,Fog,251
2012-10-8,54,50,46,48,43,34,94,77,58,30.24,30.18,30.12,19,4,0,18,8,,0.00,3,Fog,274
2012-10-9,52,49,46,48,43,34,100,80,56,30.12,30.03,30.01,12,4,0,23,17,,0.00,5,Fog-Rain,248
2012-10-10,56,51,46,48,41,36,94,72,55,30.04,30.01,29.98,12,3,0,21,15,,0.00,5,Fog,285
2012-10-11,53,50,46,50,41,34,100,76,46,30.01,30.00,29.98,19,2,0,17,10,,0.20,3,Fog-Rain,296
2012-10-12,49,46,44,46,44,40,100,90,74,30.04,29.98,29.95,0,0,0,17,10,,0.00,,Fog,255
2012-10-13,46,44,42,43,41,39,94,87,78,30.04,30.01,29.95,6,0,0,21,4,,0.04,3,Fog-Rain,253
2012-10-14,44,42,39,41,39,36,100,90,78,29.92,29.85,29.74,6,1,0,40,21,,0.04,3,Fog-Rain,256
2012-10-15,41,39,37,40,38,32,100,92,81,29.74,29.68,29.65,6,0,0,47,38,,0.63,3,Fog-Rain-Thunderstorm,267
2012-10-16,42,38,35,36,31,19,87,76,48,30.09,29.88,29.74,19,7,0,40,19,,0.00,3,Fog,267
2012-10-17,49,43,37,41,37,25,100,80,56,30.33,30.24,30.09,19,4,0,38,25,,0.02,2,Fog-Rain,268
2012-10-18,53,48,44,23,9,-6,43,21,4,30.33,30.30,30.27,19,19,19,29,20,,0.00,,,262
2012-10-19,52,48,45,48,39,7,100,73,19,30.33,30.32,30.30,19,7,0,44,30,,0.00,3,Fog,235
2012-10-20,53,49,45,48,43,32,100,80,47,30.33,30.32,30.30,19,3,0,29,15,,0.00,2,Fog,263
2012-10-21,60,54,49,45,42,37,82,63,43,30.33,30.31,30.30,19,7,6,30,20,,0.00,2,,269
2012-10-22,58,54,48,48,41,36,76,60,45,30.33,30.30,30.27,6,6,6,31,12,,0.00,4,,268
2012-10-23,54,50,46,45,23,-4,87,43,5,30.27,30.26,30.24,19,19,19,33,22,,0.00,,,341
2012-10-24,53,50,46,46,22,-4,100,44,5,30.24,30.15,30.12,19,6,0,62,12,,0.02,,Fog,258
2012-10-25,50,46,43,45,42,36,100,83,66,30.12,30.07,30.04,19,5,0,28,20,,0.00,6,Fog-Rain,246
2012-10-26,45,44,42,45,42,39,100,91,81,30.01,29.82,29.53,12,0,0,38,23,,0.67,,Fog-Rain,250
2012-10-27,42,40,37,41,39,37,100,95,89,29.50,29.30,29.21,0,0,0,38,33,,0.16,,Fog-Rain,229
2012-10-28,37,30,21,34,27,21,100,93,65,29.39,29.27,29.12,6,1,0,44,32,,0.16,3,Fog-Snow,233
2012-10-29,26,24,21,27,21,16,100,95,74,29.74,29.59,29.42,19,1,0,34,20,,0.00,3,Fog,346
2012-10-30,31,26,21,30,23,8,100,82,40,29.77,29.76,29.74,19,1,0,22,11,,0.00,,Fog,276
2012-10-31,33,30,26,32,27,23,100,92,80,29.77,29.58,29.27,6,1,0,37,27,,0.04,3,Fog-Snow,258